sensor_id;sensor_type;location;lat;lon;timestamp;pressure;altitude;pressure_sealevel;temperature;humidity
1848;BME280;924;52.448;13.356;2023-03-22T00:02:06;100608.88;;;14.65;73.13
1848;BME280;924;52.448;13.356;2023-03-22T00:04:32;100617.50;;;14.51;73.40
1848;BME280;924;52.448;13.356;2023-03-22T00:06:57;100615.22;;;14.48;73.52
1848;BME280;924;52.448;13.356;2023-03-22T00:09:22;100598.44;;;14.62;73.43
1848;BME280;924;52.448;13.356;2023-03-22T00:11:48;100605.66;;;14.57;72.87
1848;BME280;924;52.448;13.356;2023-03-22T00:14:19;100610.38;;;14.50;73.75
1848;BME280;924;52.448;13.356;2023-03-22T00:16:44;100606.25;;;14.59;72.70
1848;BME280;924;52.448;13.356;2023-03-22T00:19:11;100603.72;;;14.46;73.25
1848;BME280;924;52.448;13.356;2023-03-22T00:21:36;100601.94;;;14.22;74.03
1848;BME280;924;52.448;13.356;2023-03-22T00:24:01;100591.22;;;14.38;73.55
1848;BME280;924;52.448;13.356;2023-03-22T00:26:27;100596.69;;;14.38;73.39
1848;BME280;924;52.448;13.356;2023-03-22T00:28:52;100591.88;;;14.52;73.46
1848;BME280;924;52.448;13.356;2023-03-22T00:31:17;100593.50;;;14.41;73.33
1848;BME280;924;52.448;13.356;2023-03-22T00:33:44;100600.34;;;14.32;73.81
1848;BME280;924;52.448;13.356;2023-03-22T00:36:10;100597.19;;;14.17;74.01
1848;BME280;924;52.448;13.356;2023-03-22T00:38:36;100592.63;;;14.29;74.11
1848;BME280;924;52.448;13.356;2023-03-22T00:41:13;100583.91;;;14.50;72.79
1848;BME280;924;52.448;13.356;2023-03-22T00:43:39;100576.38;;;14.64;72.32
1848;BME280;924;52.448;13.356;2023-03-22T00:46:05;100577.34;;;14.40;73.75
1848;BME280;924;52.448;13.356;2023-03-22T00:48:30;100593.56;;;14.35;73.81
1848;BME280;924;52.448;13.356;2023-03-22T00:50:56;100583.84;;;14.27;73.48
1848;BME280;924;52.448;13.356;2023-03-22T00:53:21;100584.13;;;14.37;73.49
1848;BME280;924;52.448;13.356;2023-03-22T00:55:46;100583.66;;;14.40;73.09
1848;BME280;924;52.448;13.356;2023-03-22T00:58:12;100583.06;;;14.38;73.27
1848;BME280;924;52.448;13.356;2023-03-22T01:00:37;100593.78;;;14.04;74.21
1848;BME280;924;52.448;13.356;2023-03-22T01:03:03;100584.78;;;14.33;73.77
1848;BME280;924;52.448;13.356;2023-03-22T01:05:33;100583.50;;;14.35;73.51
1848;BME280;924;52.448;13.356;2023-03-22T01:08:03;100593.69;;;14.28;73.48
1848;BME280;924;52.448;13.356;2023-03-22T01:10:33;100579.06;;;14.23;73.75
1848;BME280;924;52.448;13.356;2023-03-22T01:12:59;100579.47;;;14.38;72.74
1848;BME280;924;52.448;13.356;2023-03-22T01:15:25;100572.41;;;14.19;73.55
1848;BME280;924;52.448;13.356;2023-03-22T01:17:50;100567.69;;;14.26;73.23
1848;BME280;924;52.448;13.356;2023-03-22T01:20:16;100572.28;;;14.43;72.92
1848;BME280;924;52.448;13.356;2023-03-22T01:22:41;100567.38;;;14.34;73.03
1848;BME280;924;52.448;13.356;2023-03-22T01:25:07;100561.91;;;14.34;72.76
1848;BME280;924;52.448;13.356;2023-03-22T01:27:32;100561.63;;;14.53;72.13
1848;BME280;924;52.448;13.356;2023-03-22T01:29:58;100560.00;;;14.23;73.98
1848;BME280;924;52.448;13.356;2023-03-22T01:32:23;100552.41;;;14.25;73.38
1848;BME280;924;52.448;13.356;2023-03-22T01:34:48;100548.03;;;14.06;74.10
1848;BME280;924;52.448;13.356;2023-03-22T01:37:14;100542.91;;;14.16;73.52
1848;BME280;924;52.448;13.356;2023-03-22T01:39:40;100550.00;;;13.99;74.28
1848;BME280;924;52.448;13.356;2023-03-22T01:42:05;100551.06;;;13.98;74.65
1848;BME280;924;52.448;13.356;2023-03-22T01:44:31;100548.78;;;14.13;73.95
1848;BME280;924;52.448;13.356;2023-03-22T01:46:56;100532.75;;;14.34;72.84
1848;BME280;924;52.448;13.356;2023-03-22T01:49:32;100533.81;;;14.04;73.81
1848;BME280;924;52.448;13.356;2023-03-22T01:52:05;100532.00;;;13.98;74.34
1848;BME280;924;52.448;13.356;2023-03-22T01:57:05;100530.56;;;13.95;74.48
1848;BME280;924;52.448;13.356;2023-03-22T01:59:31;100530.97;;;14.10;73.68
1848;BME280;924;52.448;13.356;2023-03-22T02:01:58;100526.53;;;14.16;72.68
1848;BME280;924;52.448;13.356;2023-03-22T02:04:30;100525.84;;;14.02;73.14
1848;BME280;924;52.448;13.356;2023-03-22T02:07:01;100527.53;;;14.03;73.28
1848;BME280;924;52.448;13.356;2023-03-22T02:09:35;100524.31;;;14.06;73.04
1848;BME280;924;52.448;13.356;2023-03-22T02:50:08;100508.31;;;13.80;72.39
1848;BME280;924;52.448;13.356;2023-03-22T03:00:02;100526.72;;;13.13;74.69
1848;BME280;924;52.448;13.356;2023-03-22T03:02:33;100511.31;;;13.25;74.16
1848;BME280;924;52.448;13.356;2023-03-22T03:04:59;100506.09;;;13.42;73.45
1848;BME280;924;52.448;13.356;2023-03-22T03:07:26;100496.19;;;13.47;72.93
1848;BME280;924;52.448;13.356;2023-03-22T03:09:53;100499.69;;;13.36;73.17
1848;BME280;924;52.448;13.356;2023-03-22T03:12:21;100503.44;;;13.17;73.74
1848;BME280;924;52.448;13.356;2023-03-22T03:14:48;100503.50;;;13.11;74.53
1848;BME280;924;52.448;13.356;2023-03-22T03:23:00;100510.69;;;13.05;74.05
1848;BME280;924;52.448;13.356;2023-03-22T03:28:46;100521.59;;;13.05;73.73
1848;BME280;924;52.448;13.356;2023-03-22T03:31:49;100514.94;;;13.01;74.56
1848;BME280;924;52.448;13.356;2023-03-22T03:34:17;100516.16;;;13.05;74.18
1848;BME280;924;52.448;13.356;2023-03-22T03:36:59;100508.53;;;13.14;73.74
1848;BME280;924;52.448;13.356;2023-03-22T03:39:28;100506.97;;;13.00;73.66
1848;BME280;924;52.448;13.356;2023-03-22T03:41:55;100521.59;;;13.23;72.67
1848;BME280;924;52.448;13.356;2023-03-22T03:44:21;100514.94;;;13.01;73.45
1848;BME280;924;52.448;13.356;2023-03-22T03:46:47;100515.38;;;12.98;73.17
1848;BME280;924;52.448;13.356;2023-03-22T03:49:15;100514.63;;;13.09;72.60
1848;BME280;924;52.448;13.356;2023-03-22T03:51:46;100510.25;;;13.08;72.49
1848;BME280;924;52.448;13.356;2023-03-22T03:54:12;100507.22;;;12.98;72.58
1848;BME280;924;52.448;13.356;2023-03-22T03:56:38;100500.44;;;12.83;73.46
1848;BME280;924;52.448;13.356;2023-03-22T03:59:03;100502.53;;;13.05;72.70
1848;BME280;924;52.448;13.356;2023-03-22T04:01:28;100505.91;;;13.01;72.89
1848;BME280;924;52.448;13.356;2023-03-22T04:03:54;100506.16;;;12.99;72.66
1848;BME280;924;52.448;13.356;2023-03-22T04:06:20;100504.94;;;12.95;72.88
1848;BME280;924;52.448;13.356;2023-03-22T04:08:45;100498.44;;;12.96;72.87
1848;BME280;924;52.448;13.356;2023-03-22T04:11:17;100506.31;;;13.04;72.17
1848;BME280;924;52.448;13.356;2023-03-22T04:13:43;100503.44;;;13.17;71.95
1848;BME280;924;52.448;13.356;2023-03-22T04:16:08;100513.19;;;13.07;72.58
1848;BME280;924;52.448;13.356;2023-03-22T04:18:34;100511.84;;;13.16;71.65
1848;BME280;924;52.448;13.356;2023-03-22T04:20:59;100507.38;;;13.21;71.49
1848;BME280;924;52.448;13.356;2023-03-22T04:23:24;100512.25;;;13.37;71.08
1848;BME280;924;52.448;13.356;2023-03-22T04:25:50;100521.19;;;13.02;72.43
1848;BME280;924;52.448;13.356;2023-03-22T04:28:16;100510.31;;;13.02;72.34
1848;BME280;924;52.448;13.356;2023-03-22T04:30:43;100503.44;;;13.17;72.08
1848;BME280;924;52.448;13.356;2023-03-22T04:33:10;100502.53;;;13.23;71.72
1848;BME280;924;52.448;13.356;2023-03-22T04:35:36;100506.78;;;13.19;71.74
1848;BME280;924;52.448;13.356;2023-03-22T04:38:01;100512.47;;;13.18;71.70
1848;BME280;924;52.448;13.356;2023-03-22T04:40:27;100505.75;;;12.96;72.11
1848;BME280;924;52.448;13.356;2023-03-22T04:42:59;100506.41;;;13.16;71.84
1848;BME280;924;52.448;13.356;2023-03-22T04:45:28;100513.19;;;13.07;72.36
1848;BME280;924;52.448;13.356;2023-03-22T04:47:57;100509.34;;;12.96;72.40
1848;BME280;924;52.448;13.356;2023-03-22T04:50:23;100502.53;;;13.05;72.61
1848;BME280;924;52.448;13.356;2023-03-22T04:52:49;100499.50;;;12.95;72.47
1848;BME280;924;52.448;13.356;2023-03-22T04:55:14;100496.53;;;12.97;72.33
1848;BME280;924;52.448;13.356;2023-03-22T04:57:40;100496.72;;;13.20;71.70
1848;BME280;924;52.448;13.356;2023-03-22T05:00:05;100482.00;;;12.85;72.51
1848;BME280;924;52.448;13.356;2023-03-22T05:02:33;100486.50;;;12.97;72.33
1848;BME280;924;52.448;13.356;2023-03-22T05:04:58;100485.97;;;12.82;72.74
1848;BME280;924;52.448;13.356;2023-03-22T05:07:24;100483.50;;;12.81;72.65
1848;BME280;924;52.448;13.356;2023-03-22T05:09:49;100474.03;;;12.83;73.00
1848;BME280;924;52.448;13.356;2023-03-22T05:12:15;100468.69;;;12.77;72.98
1848;BME280;924;52.448;13.356;2023-03-22T05:14:40;100465.34;;;12.75;73.14
1848;BME280;924;52.448;13.356;2023-03-22T05:17:05;100467.84;;;12.76;73.13
1848;BME280;924;52.448;13.356;2023-03-22T05:19:31;100474.53;;;12.56;74.06
1848;BME280;924;52.448;13.356;2023-03-22T05:21:57;100469.47;;;12.59;73.82
1848;BME280;924;52.448;13.356;2023-03-22T05:24:27;100471.50;;;12.64;73.45
1848;BME280;924;52.448;13.356;2023-03-22T05:26:53;100478.72;;;12.76;73.19
1848;BME280;924;52.448;13.356;2023-03-22T05:29:18;100479.19;;;12.73;73.32
1848;BME280;924;52.448;13.356;2023-03-22T05:31:44;100479.44;;;12.90;72.99
1848;BME280;924;52.448;13.356;2023-03-22T05:34:10;100479.72;;;12.82;73.04
1848;BME280;924;52.448;13.356;2023-03-22T05:36:35;100483.03;;;13.08;72.08
1848;BME280;924;52.448;13.356;2023-03-22T05:39:01;100467.09;;;12.87;72.49
1848;BME280;924;52.448;13.356;2023-03-22T05:41:27;100476.66;;;12.72;73.03
1848;BME280;924;52.448;13.356;2023-03-22T05:43:56;100475.34;;;12.32;74.39
1848;BME280;924;52.448;13.356;2023-03-22T05:46:21;100478.91;;;12.57;73.69
1848;BME280;924;52.448;13.356;2023-03-22T05:48:46;100469.47;;;12.59;73.60
1848;BME280;924;52.448;13.356;2023-03-22T05:51:14;100466.25;;;12.44;74.64
1848;BME280;924;52.448;13.356;2023-03-22T05:53:42;100471.03;;;12.49;74.36
1848;BME280;924;52.448;13.356;2023-03-22T05:56:08;100466.94;;;12.40;74.59
1848;BME280;924;52.448;13.356;2023-03-22T05:58:34;100477.84;;;12.33;74.73
1848;BME280;924;52.448;13.356;2023-03-22T06:01:08;100476.03;;;11.97;76.05
1848;BME280;924;52.448;13.356;2023-03-22T06:03:35;100460.94;;;12.31;75.18
1848;BME280;924;52.448;13.356;2023-03-22T06:06:00;100459.03;;;12.56;74.30
1848;BME280;924;52.448;13.356;2023-03-22T06:08:26;100460.38;;;12.90;73.29
1848;BME280;924;52.448;13.356;2023-03-22T06:10:52;100466.94;;;12.82;73.28
1848;BME280;924;52.448;13.356;2023-03-22T06:13:18;100462.25;;;12.89;72.98
1848;BME280;924;52.448;13.356;2023-03-22T06:15:44;100459.19;;;12.86;73.13
1848;BME280;924;52.448;13.356;2023-03-22T06:18:10;100461.13;;;12.79;73.19
1848;BME280;924;52.448;13.356;2023-03-22T06:20:36;100457.41;;;12.73;73.91
1848;BME280;924;52.448;13.356;2023-03-22T06:23:03;100458.88;;;12.51;74.18
1848;BME280;924;52.448;13.356;2023-03-22T06:25:28;100465.88;;;12.65;74.13
1848;BME280;924;52.448;13.356;2023-03-22T06:27:53;100459.50;;;12.96;73.11
1848;BME280;924;52.448;13.356;2023-03-22T06:30:19;100465.88;;;12.83;73.33
1848;BME280;924;52.448;13.356;2023-03-22T06:32:45;100464.00;;;12.84;73.24
1848;BME280;924;52.448;13.356;2023-03-22T06:35:10;100464.81;;;12.84;73.61
1848;BME280;924;52.448;13.356;2023-03-22T06:37:35;100462.88;;;12.91;73.59
1848;BME280;924;52.448;13.356;2023-03-22T06:40:02;100472.00;;;13.03;72.54
1848;BME280;924;52.448;13.356;2023-03-22T06:42:28;100465.53;;;12.80;73.48
1848;BME280;924;52.448;13.356;2023-03-22T06:44:55;100474.63;;;12.67;74.59
1848;BME280;924;52.448;13.356;2023-03-22T06:47:21;100473.88;;;13.03;73.19
1848;BME280;924;52.448;13.356;2023-03-22T06:49:46;100476.75;;;12.65;74.63
1848;BME280;924;52.448;13.356;2023-03-22T06:52:11;100475.72;;;12.84;74.36
1848;BME280;924;52.448;13.356;2023-03-22T06:54:37;100470.75;;;12.57;75.46
1848;BME280;924;52.448;13.356;2023-03-22T06:57:02;100475.94;;;13.07;73.29
1848;BME280;924;52.448;13.356;2023-03-22T06:59:28;100475.78;;;13.02;73.01
1848;BME280;924;52.448;13.356;2023-03-22T07:01:53;100482.03;;;13.03;73.42
1848;BME280;924;52.448;13.356;2023-03-22T07:04:18;100473.13;;;12.96;73.73
1848;BME280;924;52.448;13.356;2023-03-22T07:06:44;100483.41;;;12.94;73.74
1848;BME280;924;52.448;13.356;2023-03-22T07:09:09;100477.97;;;12.87;74.34
1848;BME280;924;52.448;13.356;2023-03-22T07:11:35;100481.66;;;12.50;76.38
1848;BME280;924;52.448;13.356;2023-03-22T07:14:00;100477.22;;;12.80;75.57
1848;BME280;924;52.448;13.356;2023-03-22T07:16:26;100482.50;;;12.75;75.33
1848;BME280;924;52.448;13.356;2023-03-22T07:18:51;100476.59;;;12.78;75.60
1848;BME280;924;52.448;13.356;2023-03-22T07:21:17;100484.72;;;12.85;74.86
1848;BME280;924;52.448;13.356;2023-03-22T07:23:42;100483.19;;;13.13;74.48
1848;BME280;924;52.448;13.356;2023-03-22T07:26:08;100480.41;;;13.20;73.87
1848;BME280;924;52.448;13.356;2023-03-22T07:28:33;100483.97;;;13.38;72.98
1848;BME280;924;52.448;13.356;2023-03-22T07:31:04;100473.28;;;13.01;73.83
1848;BME280;924;52.448;13.356;2023-03-22T07:33:30;100475.63;;;13.15;73.82
1848;BME280;924;52.448;13.356;2023-03-22T07:35:55;100469.34;;;13.51;72.95
1848;BME280;924;52.448;13.356;2023-03-22T07:38:20;100466.19;;;13.65;72.84
1848;BME280;924;52.448;13.356;2023-03-22T07:40:46;100473.94;;;13.68;72.69
1848;BME280;924;52.448;13.356;2023-03-22T07:43:11;100462.47;;;13.77;71.54
1848;BME280;924;52.448;13.356;2023-03-22T07:45:38;100463.97;;;13.91;71.16
1848;BME280;924;52.448;13.356;2023-03-22T07:48:03;100459.28;;;13.80;70.65
1848;BME280;924;52.448;13.356;2023-03-22T07:50:29;100459.00;;;13.70;70.94
1848;BME280;924;52.448;13.356;2023-03-22T07:52:54;100458.91;;;13.30;72.60
1848;BME280;924;52.448;13.356;2023-03-22T07:55:19;100446.50;;;13.81;70.59
1848;BME280;924;52.448;13.356;2023-03-22T07:57:45;100451.88;;;13.87;70.30
1848;BME280;924;52.448;13.356;2023-03-22T08:00:10;100452.00;;;14.22;68.94
1848;BME280;924;52.448;13.356;2023-03-22T08:02:36;100445.38;;;14.00;70.07
1848;BME280;924;52.448;13.356;2023-03-22T08:05:03;100450.47;;;14.26;68.89
1848;BME280;924;52.448;13.356;2023-03-22T08:07:29;100450.50;;;14.49;68.50
1848;BME280;924;52.448;13.356;2023-03-22T08:09:55;100443.53;;;14.64;67.35
1848;BME280;924;52.448;13.356;2023-03-22T08:12:21;100445.28;;;14.70;67.29
1848;BME280;924;52.448;13.356;2023-03-22T08:14:47;100436.28;;;14.81;66.97
1848;BME280;924;52.448;13.356;2023-03-22T08:17:15;100439.00;;;14.81;65.40
1848;BME280;924;52.448;13.356;2023-03-22T08:19:41;100442.19;;;14.67;66.61
1848;BME280;924;52.448;13.356;2023-03-22T08:22:06;100441.25;;;14.96;65.69
1848;BME280;924;52.448;13.356;2023-03-22T08:24:32;100442.31;;;14.83;66.11
1848;BME280;924;52.448;13.356;2023-03-22T08:26:57;100444.13;;;14.78;66.29
1848;BME280;924;52.448;13.356;2023-03-22T08:29:23;100435.56;;;14.86;65.75
1848;BME280;924;52.448;13.356;2023-03-22T08:31:49;100441.56;;;15.10;65.26
1848;BME280;924;52.448;13.356;2023-03-22T08:34:15;100438.25;;;15.08;65.21
1848;BME280;924;52.448;13.356;2023-03-22T08:36:40;100432.47;;;15.05;65.41
1848;BME280;924;52.448;13.356;2023-03-22T08:39:06;100428.06;;;15.04;65.61
1848;BME280;924;52.448;13.356;2023-03-22T08:41:33;100422.59;;;15.15;65.87
1848;BME280;924;52.448;13.356;2023-03-22T08:43:58;100419.13;;;15.31;64.93
1848;BME280;924;52.448;13.356;2023-03-22T08:46:23;100423.38;;;15.27;64.36
1848;BME280;924;52.448;13.356;2023-03-22T08:48:49;100431.72;;;15.09;64.68
1848;BME280;924;52.448;13.356;2023-03-22T08:51:19;100421.06;;;14.97;64.72
1848;BME280;924;52.448;13.356;2023-03-22T08:53:48;100421.28;;;15.07;65.13
1848;BME280;924;52.448;13.356;2023-03-22T08:56:13;100406.91;;;15.22;65.06
1848;BME280;924;52.448;13.356;2023-03-22T08:58:43;100414.09;;;15.51;64.84
1848;BME280;924;52.448;13.356;2023-03-22T09:01:12;100406.91;;;15.62;63.80
1848;BME280;924;52.448;13.356;2023-03-22T09:03:37;100400.81;;;15.71;63.95
1848;BME280;924;52.448;13.356;2023-03-22T09:06:03;100402.56;;;15.77;63.05
1848;BME280;924;52.448;13.356;2023-03-22T09:08:28;100399.84;;;15.49;63.49
1848;BME280;924;52.448;13.356;2023-03-22T09:10:54;100393.09;;;15.40;63.96
1848;BME280;924;52.448;13.356;2023-03-22T09:13:21;100386.22;;;15.38;63.89
1848;BME280;924;52.448;13.356;2023-03-22T09:15:47;100381.13;;;15.58;63.55
1848;BME280;924;52.448;13.356;2023-03-22T09:18:13;100373.16;;;15.84;62.72
1848;BME280;924;52.448;13.356;2023-03-22T09:20:38;100368.31;;;16.90;61.07
1848;BME280;924;52.448;13.356;2023-03-22T09:23:04;100371.09;;;19.26;53.69
1848;BME280;924;52.448;13.356;2023-03-22T09:25:31;100357.69;;;21.19;47.87
1848;BME280;924;52.448;13.356;2023-03-22T09:27:57;67444.69;;;-141.31;100.00
1848;BME280;924;52.448;13.356;2023-03-22T09:30:22;100357.69;;;21.19;47.87
1848;BME280;924;52.448;13.356;2023-03-22T09:32:48;100365.63;;;21.89;42.98
1848;BME280;924;52.448;13.356;2023-03-22T09:35:13;100362.88;;;21.36;44.17
1848;BME280;924;52.448;13.356;2023-03-22T09:37:38;100369.66;;;20.50;46.49
1848;BME280;924;52.448;13.356;2023-03-22T09:40:05;100378.22;;;20.13;48.22
1848;BME280;924;52.448;13.356;2023-03-22T09:42:41;100372.66;;;18.29;51.59
1848;BME280;924;52.448;13.356;2023-03-22T09:45:22;100376.50;;;18.65;51.15
1848;BME280;924;52.448;13.356;2023-03-22T09:47:54;100386.53;;;18.91;50.41
1848;BME280;924;52.448;13.356;2023-03-22T09:50:28;100378.81;;;18.83;50.14
1848;BME280;924;52.448;13.356;2023-03-22T09:52:55;100381.03;;;18.91;51.05
1848;BME280;924;52.448;13.356;2023-03-22T09:55:31;100365.22;;;18.61;51.56
1848;BME280;924;52.448;13.356;2023-03-22T10:00:59;100370.31;;;18.84;51.22
1848;BME280;924;52.448;13.356;2023-03-22T10:06:21;100364.78;;;18.79;51.20
1848;BME280;924;52.448;13.356;2023-03-22T10:11:26;100363.38;;;19.23;50.18
1848;BME280;924;52.448;13.356;2023-03-22T10:14:26;100353.88;;;18.94;51.33
1848;BME280;924;52.448;13.356;2023-03-22T10:16:55;100348.34;;;18.84;51.17
1848;BME280;924;52.448;13.356;2023-03-22T10:22:14;100366.31;;;19.07;50.15
1848;BME280;924;52.448;13.356;2023-03-22T10:24:42;100338.47;;;18.93;50.64
1848;BME280;924;52.448;13.356;2023-03-22T10:27:17;100343.75;;;19.05;50.48
1848;BME280;924;52.448;13.356;2023-03-22T10:29:56;100345.06;;;18.92;50.26
1848;BME280;924;52.448;13.356;2023-03-22T10:32:29;100334.19;;;18.61;51.23
1848;BME280;924;52.448;13.356;2023-03-22T10:34:56;100333.75;;;19.50;50.96
1848;BME280;924;52.448;13.356;2023-03-22T10:37:28;100331.66;;;19.92;48.74
1848;BME280;924;52.448;13.356;2023-03-22T10:39:57;100309.91;;;20.55;46.69
1848;BME280;924;52.448;13.356;2023-03-22T10:42:27;100323.28;;;22.89;41.55
1848;BME280;924;52.448;13.356;2023-03-22T10:44:57;100319.03;;;22.49;40.58
1848;BME280;924;52.448;13.356;2023-03-22T10:47:40;100301.88;;;21.85;42.43
1848;BME280;924;52.448;13.356;2023-03-22T10:50:12;100299.66;;;20.76;44.80
1848;BME280;924;52.448;13.356;2023-03-22T10:52:57;100299.47;;;20.22;45.05
1848;BME280;924;52.448;13.356;2023-03-22T10:55:25;100301.97;;;20.29;45.81
1848;BME280;924;52.448;13.356;2023-03-22T10:58:00;100284.63;;;20.18;45.77
1848;BME280;924;52.448;13.356;2023-03-22T11:00:34;100282.97;;;20.02;45.50
1848;BME280;924;52.448;13.356;2023-03-22T11:03:00;100293.03;;;19.27;46.73
1848;BME280;924;52.448;13.356;2023-03-22T11:05:27;100288.06;;;19.24;47.79
1848;BME280;924;52.448;13.356;2023-03-22T11:07:53;100279.91;;;19.69;46.60
1848;BME280;924;52.448;13.356;2023-03-22T11:10:31;100288.47;;;20.12;46.01
1848;BME280;924;52.448;13.356;2023-03-22T11:15:32;100278.50;;;19.62;46.35
1848;BME280;924;52.448;13.356;2023-03-22T11:18:05;100270.72;;;20.73;44.48
1848;BME280;924;52.448;13.356;2023-03-22T11:20:32;100276.81;;;22.67;40.35
1848;BME280;924;52.448;13.356;2023-03-22T11:23:03;100284.19;;;22.77;39.02
1848;BME280;924;52.448;13.356;2023-03-22T11:25:37;100274.94;;;22.06;40.12
1848;BME280;924;52.448;13.356;2023-03-22T11:28:16;100288.44;;;21.26;41.54
1848;BME280;924;52.448;13.356;2023-03-22T11:31:09;100288.09;;;20.74;42.24
1848;BME280;924;52.448;13.356;2023-03-22T11:33:35;100284.88;;;20.27;43.20
1848;BME280;924;52.448;13.356;2023-03-22T11:36:06;100285.69;;;19.97;43.26
1848;BME280;924;52.448;13.356;2023-03-22T11:38:40;100272.72;;;19.43;44.42
1848;BME280;924;52.448;13.356;2023-03-22T11:41:09;100272.22;;;19.91;43.94
1848;BME280;924;52.448;13.356;2023-03-22T11:43:38;100287.91;;;20.25;43.31
1848;BME280;924;52.448;13.356;2023-03-22T11:46:06;100283.72;;;20.53;42.57
1848;BME280;924;52.448;13.356;2023-03-22T11:48:33;100280.47;;;20.21;42.20
1848;BME280;924;52.448;13.356;2023-03-22T11:51:11;100277.00;;;20.94;41.56
1848;BME280;924;52.448;13.356;2023-03-22T11:53:39;100265.63;;;21.10;41.18
1848;BME280;924;52.448;13.356;2023-03-22T11:56:09;100257.69;;;21.47;40.65
1848;BME280;924;52.448;13.356;2023-03-22T12:01:01;100245.03;;;20.93;42.02
1848;BME280;924;52.448;13.356;2023-03-22T12:03:39;100248.53;;;19.85;43.40
1848;BME280;924;52.448;13.356;2023-03-22T12:06:31;100246.63;;;20.15;43.38
1848;BME280;924;52.448;13.356;2023-03-22T12:09:02;100253.78;;;19.82;44.24
1848;BME280;924;52.448;13.356;2023-03-22T12:11:35;100246.34;;;19.82;44.58
1848;BME280;924;52.448;13.356;2023-03-22T12:16:48;100240.84;;;19.92;44.49
1848;BME280;924;52.448;13.356;2023-03-22T12:19:37;100240.28;;;19.50;46.17
1848;BME280;924;52.448;13.356;2023-03-22T12:22:12;100230.13;;;19.76;44.92
1848;BME280;924;52.448;13.356;2023-03-22T12:24:38;100227.91;;;19.53;45.38
1848;BME280;924;52.448;13.356;2023-03-22T12:29:57;100223.75;;;19.35;45.76
1848;BME280;924;52.448;13.356;2023-03-22T12:32:26;100227.25;;;19.11;45.97
1848;BME280;924;52.448;13.356;2023-03-22T12:34:52;100208.84;;;19.11;45.96
1848;BME280;924;52.448;13.356;2023-03-22T12:37:32;100204.44;;;19.00;46.51
1848;BME280;924;52.448;13.356;2023-03-22T12:45:20;100206.59;;;18.83;47.93
1848;BME280;924;52.448;13.356;2023-03-22T12:48:17;100182.81;;;19.49;46.78
1848;BME280;924;52.448;13.356;2023-03-22T12:50:48;100195.66;;;19.13;45.86
1848;BME280;924;52.448;13.356;2023-03-22T12:53:17;100185.72;;;18.97;46.20
1848;BME280;924;52.448;13.356;2023-03-22T12:55:45;100193.22;;;19.22;45.33
1848;BME280;924;52.448;13.356;2023-03-22T12:58:15;100188.03;;;19.25;45.91
1848;BME280;924;52.448;13.356;2023-03-22T13:00:50;100189.38;;;19.28;45.64
1848;BME280;924;52.448;13.356;2023-03-22T13:03:35;100186.09;;;19.21;46.35
1848;BME280;924;52.448;13.356;2023-03-22T13:06:29;100172.06;;;19.17;45.23
1848;BME280;924;52.448;13.356;2023-03-22T13:11:40;100183.00;;;19.07;45.64
1848;BME280;924;52.448;13.356;2023-03-22T13:14:05;100172.91;;;19.38;44.96
1848;BME280;924;52.448;13.356;2023-03-22T13:16:53;100182.78;;;19.24;44.75
1848;BME280;924;52.448;13.356;2023-03-22T13:19:33;100181.44;;;19.36;44.47
1848;BME280;924;52.448;13.356;2023-03-22T13:27:28;100178.69;;;19.36;44.69
1848;BME280;924;52.448;13.356;2023-03-22T13:29:59;100167.94;;;19.25;44.29
1848;BME280;924;52.448;13.356;2023-03-22T13:32:31;100171.25;;;19.42;44.03
1848;BME280;924;52.448;13.356;2023-03-22T13:34:58;100178.69;;;19.61;43.16
1848;BME280;924;52.448;13.356;2023-03-22T13:37:36;100166.31;;;19.34;43.21
1848;BME280;924;52.448;13.356;2023-03-22T13:43:54;100165.22;;;19.45;43.55
1848;BME280;924;52.448;13.356;2023-03-22T13:59:12;100153.09;;;19.31;43.94
1848;BME280;924;52.448;13.356;2023-03-22T14:01:55;100142.09;;;19.26;44.22
1848;BME280;924;52.448;13.356;2023-03-22T14:07:11;100149.00;;;19.33;43.91
1848;BME280;924;52.448;13.356;2023-03-22T14:09:52;100137.13;;;19.13;43.12
1848;BME280;924;52.448;13.356;2023-03-22T14:15:33;100141.78;;;19.12;43.23
1848;BME280;924;52.448;13.356;2023-03-22T14:20:40;100139.03;;;19.07;42.07
1848;BME280;924;52.448;13.356;2023-03-22T14:23:11;100127.00;;;19.18;42.39
1848;BME280;924;52.448;13.356;2023-03-22T14:25:38;100126.69;;;19.00;42.26
1848;BME280;924;52.448;13.356;2023-03-22T14:28:05;100136.28;;;19.02;42.42
1848;BME280;924;52.448;13.356;2023-03-22T14:33:04;100143.22;;;19.40;42.98
1848;BME280;924;52.448;13.356;2023-03-22T14:35:33;100130.28;;;19.60;42.13
1848;BME280;924;52.448;13.356;2023-03-22T14:38:05;100133.31;;;19.44;42.74
1848;BME280;924;52.448;13.356;2023-03-22T14:40:35;100136.06;;;19.59;42.43
1848;BME280;924;52.448;13.356;2023-03-22T14:45:45;100128.94;;;19.38;43.32
1848;BME280;924;52.448;13.356;2023-03-22T14:48:19;100131.38;;;19.59;42.82
1848;BME280;924;52.448;13.356;2023-03-22T14:50:52;100126.16;;;19.48;43.42
1848;BME280;924;52.448;13.356;2023-03-22T14:53:20;100122.31;;;19.49;42.80
1848;BME280;924;52.448;13.356;2023-03-22T14:55:48;100120.94;;;19.31;43.60
1848;BME280;924;52.448;13.356;2023-03-22T14:58:16;100127.53;;;19.55;43.34
1848;BME280;924;52.448;13.356;2023-03-22T15:00:42;100131.63;;;19.63;43.21
1848;BME280;924;52.448;13.356;2023-03-22T15:03:12;100123.13;;;19.64;42.91
1848;BME280;924;52.448;13.356;2023-03-22T15:05:42;100125.91;;;19.34;43.41
1848;BME280;924;52.448;13.356;2023-03-22T15:10:34;100116.81;;;19.24;42.98
1848;BME280;924;52.448;13.356;2023-03-22T15:13:02;100109.97;;;19.21;43.32
1848;BME280;924;52.448;13.356;2023-03-22T15:15:35;100113.22;;;19.48;42.88
1848;BME280;924;52.448;13.356;2023-03-22T15:18:02;100110.75;;;19.02;43.95
1848;BME280;924;52.448;13.356;2023-03-22T15:20:32;100118.44;;;19.05;43.71
1848;BME280;924;52.448;13.356;2023-03-22T15:23:07;100106.88;;;18.88;43.51